Time;durP1;ratioP1;P1;durP2;ratioP2;P2;SDS_P1;SDS_P2;PMS_P1;PMS_P2;Temp;Humidity;BMP_temperature;BMP_pressure;BME280_temperature;BME280_humidity;BME280_pressure;Samples;Min_cycle;Max_cycle;Signal;HPM_P1;HPM_P2
2022/06/27 00:00:12;;;;;;;9.45;7.60;;;16.00;99.90;;;;;;4198496;28;20372;-66
2022/06/27 00:02:14;;;;;;;11.05;8.20;;;16.00;99.90;;;;;;4196366;28;20048;-66
2022/06/27 00:04:15;;;;;;;12.02;9.32;;;16.10;99.90;;;;;;4196593;28;20032;-66
2022/06/27 00:06:19;;;;;;;14.98;9.70;;;16.10;99.90;;;;;;4198703;28;20476;-66
2022/06/27 00:08:21;;;;;;;23.33;10.02;;;16.10;99.90;;;;;;4199412;28;20031;-68
2022/06/27 00:10:22;;;;;;;32.53;9.98;;;16.10;99.90;;;;;;4210505;28;20036;-65
2022/06/27 00:12:23;;;;;;;22.42;10.88;;;16.10;99.90;;;;;;4206343;28;20032;-67
2022/06/27 00:14:24;;;;;;;41.75;10.48;;;16.10;99.90;;;;;;4200212;28;20082;-66
2022/06/27 00:16:25;;;;;;;92.10;12.38;;;15.90;99.90;;;;;;4200200;28;20024;-67
2022/06/27 00:18:27;;;;;;;49.65;12.07;;;15.90;99.90;;;;;;4192221;28;20045;-65
2022/06/27 00:20:28;;;;;;;106.20;14.15;;;15.80;99.90;;;;;;4197961;28;20055;-66
2022/06/27 00:22:30;;;;;;;175.13;14.35;;;15.80;99.90;;;;;;4203350;28;20094;-62
2022/06/27 00:24:32;;;;;;;63.90;12.30;;;15.70;99.90;;;;;;4204375;28;20093;-63
2022/06/27 00:26:33;;;;;;;79.78;11.90;;;15.70;99.90;;;;;;4197288;28;20037;-64
2022/06/27 00:28:34;;;;;;;82.68;13.50;;;15.60;99.90;;;;;;4199847;28;20715;-64
2022/06/27 00:30:36;;;;;;;113.03;11.88;;;15.60;99.90;;;;;;4196257;28;20063;-65
2022/06/27 00:32:37;;;;;;;39.53;11.10;;;15.50;99.90;;;;;;4198071;28;20101;-66
2022/06/27 00:34:38;;;;;;;61.92;13.30;;;15.50;99.90;;;;;;4200593;28;20015;-66
2022/06/27 00:36:40;;;;;;;79.68;12.77;;;15.50;99.90;;;;;;4198262;28;20036;-65
2022/06/27 00:38:41;;;;;;;109.40;13.50;;;15.50;99.90;;;;;;4203646;28;20129;-64
2022/06/27 00:40:42;;;;;;;127.40;13.90;;;15.50;99.90;;;;;;4213248;28;20039;-65
2022/06/27 00:42:43;;;;;;;121.00;13.35;;;15.50;99.90;;;;;;4211779;28;20094;-65
2022/06/27 00:44:44;;;;;;;97.75;13.32;;;15.50;99.90;;;;;;4213183;28;20469;-67
2022/06/27 00:46:45;;;;;;;91.88;14.63;;;15.50;99.90;;;;;;4214088;28;20086;-66
2022/06/27 00:48:47;;;;;;;83.72;13.27;;;15.40;99.90;;;;;;4212948;28;20081;-66
2022/06/27 00:50:48;;;;;;;55.65;12.68;;;15.40;99.90;;;;;;4211853;28;20085;-64
2022/06/27 00:52:49;;;;;;;74.85;13.82;;;15.40;99.90;;;;;;4212987;28;20832;-66
2022/06/27 00:54:51;;;;;;;67.28;10.02;;;15.40;99.90;;;;;;4212353;28;20464;-65
2022/06/27 00:56:53;;;;;;;235.45;13.75;;;15.40;99.90;;;;;;4212811;28;20020;-66
2022/06/27 00:58:54;;;;;;;321.00;16.90;;;15.30;99.90;;;;;;4214086;28;20028;-65
2022/06/27 01:00:56;;;;;;;79.88;12.10;;;15.30;99.90;;;;;;4213023;28;20093;-67
2022/06/27 01:02:57;;;;;;;77.35;11.68;;;15.20;99.90;;;;;;4213413;28;20047;-66
2022/06/27 01:04:58;;;;;;;177.63;15.07;;;15.20;99.90;;;;;;4196219;28;20026;-66
2022/06/27 01:06:59;;;;;;;219.10;15.45;;;15.20;99.90;;;;;;4202795;28;20089;-68
2022/06/27 01:09:00;;;;;;;278.05;18.02;;;15.20;99.90;;;;;;4213157;28;20438;-66
2022/06/27 01:11:02;;;;;;;222.45;15.55;;;15.20;99.90;;;;;;4212939;28;20039;-66
2022/06/27 01:13:03;;;;;;;71.10;12.05;;;15.20;99.90;;;;;;4213399;28;20434;-67
2022/06/27 01:15:04;;;;;;;202.77;16.10;;;15.10;99.90;;;;;;4212466;28;20032;-67
2022/06/27 01:17:06;;;;;;;93.82;15.13;;;15.10;99.90;;;;;;4213556;28;20036;-66
2022/06/27 01:19:17;;;;;;;106.13;15.02;;;15.10;99.90;;;;;;4206056;28;20048;-67
2022/06/27 01:21:23;;;;;;;46.15;13.05;;;15.20;99.90;;;;;;4197151;28;20036;-65
2022/06/27 01:23:25;;;;;;;192.52;15.95;;;15.10;99.90;;;;;;4194109;28;20071;-64
2022/06/27 01:25:26;;;;;;;292.30;21.85;;;15.10;99.90;;;;;;4197219;28;20090;-64
2022/06/27 01:27:27;;;;;;;476.73;22.85;;;15.10;99.90;;;;;;4195582;28;20058;-65
2022/06/27 01:29:28;;;;;;;171.93;15.95;;;15.10;99.90;;;;;;4196843;28;20098;-68
2022/06/27 01:31:31;;;;;;;46.97;12.70;;;15.00;99.90;;;;;;4203078;28;20049;-66
2022/06/27 01:33:32;;;;;;;22.58;12.23;;;15.10;99.90;;;;;;4212850;28;20039;-66
2022/06/27 01:35:33;;;;;;;31.35;12.52;;;15.20;99.90;;;;;;4212187;28;20040;-67
2022/06/27 01:37:34;;;;;;;35.33;13.98;;;15.30;99.90;;;;;;4213219;28;20629;-65
2022/06/27 01:39:36;;;;;;;33.35;12.82;;;15.30;99.90;;;;;;4210876;28;20054;-66
2022/06/27 01:41:43;;;;;;;40.60;12.65;;;15.40;99.90;;;;;;4195997;28;20029;-67
2022/06/27 01:43:47;;;;;;;42.22;12.35;;;15.30;99.90;;;;;;4195686;28;20063;-67
2022/06/27 01:45:48;;;;;;;71.82;12.77;;;15.40;99.90;;;;;;4205596;28;20462;-65
2022/06/27 01:47:49;;;;;;;20.10;11.93;;;15.40;99.90;;;;;;4212493;28;20032;-66
2022/06/27 01:49:51;;;;;;;20.27;12.43;;;15.40;99.90;;;;;;4211617;28;20496;-65
2022/06/27 01:51:52;;;;;;;24.23;10.65;;;15.50;99.90;;;;;;4212620;28;20494;-64
2022/06/27 01:53:53;;;;;;;19.80;10.43;;;15.50;99.90;;;;;;4211919;28;20036;-66
2022/06/27 01:55:55;;;;;;;15.57;10.35;;;15.50;99.90;;;;;;4213176;28;20040;-63
2022/06/27 01:57:57;;;;;;;13.05;9.85;;;15.60;99.90;;;;;;4200879;28;20070;-66
2022/06/27 01:59:58;;;;;;;14.93;11.20;;;15.70;99.90;;;;;;4196480;28;20117;-64
2022/06/27 02:02:00;;;;;;;16.35;10.80;;;15.70;99.90;;;;;;4194821;28;20115;-64
2022/06/27 02:04:02;;;;;;;56.88;13.43;;;15.70;99.90;;;;;;4209516;28;20040;-67
2022/06/27 02:06:04;;;;;;;20.33;12.32;;;15.80;99.90;;;;;;4211710;28;20132;-64
2022/06/27 02:08:06;;;;;;;29.33;16.33;;;15.80;99.90;;;;;;4212855;28;20415;-65
2022/06/27 02:10:07;;;;;;;63.00;16.73;;;15.80;99.90;;;;;;4211517;28;20036;-65
2022/06/27 02:12:18;;;;;;;27.88;13.73;;;15.80;99.90;;;;;;4211091;28;20044;-68
2022/06/27 02:14:20;;;;;;;89.13;17.63;;;15.80;99.90;;;;;;4211489;28;20706;-64
2022/06/27 02:16:21;;;;;;;37.72;13.10;;;15.70;99.90;;;;;;4197189;28;20078;-65
2022/06/27 02:18:23;;;;;;;65.55;15.48;;;15.70;99.90;;;;;;4194917;28;20032;-65
2022/06/27 02:20:24;;;;;;;71.40;10.95;;;15.60;99.90;;;;;;4195830;28;20021;-65
2022/06/27 02:22:26;;;;;;;22.30;10.50;;;15.60;99.90;;;;;;4195137;28;20033;-65
2022/06/27 02:24:27;;;;;;;56.70;11.30;;;15.50;99.90;;;;;;4196005;28;20473;-64
2022/06/27 02:26:30;;;;;;;47.72;12.18;;;15.50;99.90;;;;;;4179179;28;20480;-65
2022/06/27 02:28:32;;;;;;;19.23;9.95;;;15.50;99.90;;;;;;4186484;28;20462;-64
2022/06/27 02:30:33;;;;;;;16.73;9.48;;;15.50;99.90;;;;;;4212400;28;20546;-66
2022/06/27 02:32:35;;;;;;;20.63;11.20;;;15.60;99.90;;;;;;4211261;28;20483;-66
2022/06/27 02:34:37;;;;;;;31.02;11.30;;;15.70;99.90;;;;;;4212298;28;20024;-66
2022/06/27 02:36:41;;;;;;;28.10;12.20;;;15.70;99.90;;;;;;4211146;28;20040;-65
2022/06/27 02:38:44;;;;;;;34.08;13.07;;;15.70;99.90;;;;;;4212411;28;20468;-67
2022/06/27 02:40:47;;;;;;;53.85;17.60;;;15.70;99.90;;;;;;4205996;28;20040;-66
2022/06/27 02:42:51;;;;;;;41.20;13.43;;;15.70;99.90;;;;;;4195292;28;20062;-68
2022/06/27 02:44:53;;;;;;;52.75;13.30;;;15.60;99.90;;;;;;4193381;28;20109;-67
2022/06/27 02:46:54;;;;;;;55.88;15.00;;;15.50;99.90;;;;;;4195594;28;20032;-66
2022/06/27 02:48:55;;;;;;;58.28;16.48;;;15.40;99.90;;;;;;4196445;28;20544;-65
2022/06/27 02:51:03;;;;;;;96.20;19.45;;;15.40;99.90;;;;;;4212359;28;20098;-66
2022/06/27 02:53:11;;;;;;;82.38;20.17;;;15.30;99.90;;;;;;4204923;28;20028;-64
2022/06/27 02:55:14;;;;;;;111.85;22.63;;;15.30;99.90;;;;;;4194835;28;20036;-65
2022/06/27 02:57:49;;;;;;;108.65;22.48;;;15.30;99.90;;;;;;4194520;28;20028;-65
2022/06/27 02:59:54;;;;;;;78.63;21.00;;;15.20;99.90;;;;;;4195144;28;20097;-65
2022/06/27 03:01:57;;;;;;;72.38;22.15;;;15.30;99.90;;;;;;4193836;28;20492;-64
2022/06/27 03:03:59;;;;;;;85.97;24.75;;;15.30;99.90;;;;;;4209943;28;20052;-65
2022/06/27 03:06:06;;;;;;;97.07;22.88;;;15.20;99.90;;;;;;4210948;28;20047;-64
2022/06/27 03:08:08;;;;;;;71.72;15.75;;;15.20;99.90;;;;;;4195537;28;20090;-64
2022/06/27 03:10:10;;;;;;;121.88;14.68;;;15.20;99.90;;;;;;4194338;28;20048;-64
2022/06/27 03:12:11;;;;;;;88.38;13.10;;;15.20;99.90;;;;;;4194149;28;20029;-64
2022/06/27 03:14:12;;;;;;;112.07;13.40;;;15.10;99.90;;;;;;4194529;28;20443;-65
2022/06/27 03:16:15;;;;;;;173.43;16.27;;;15.10;99.90;;;;;;4194027;28;20070;-66
2022/06/27 03:18:16;;;;;;;112.45;12.85;;;15.10;99.90;;;;;;4197062;28;20480;-65
2022/06/27 03:20:17;;;;;;;123.35;15.13;;;15.00;99.90;;;;;;4210918;28;20040;-65
2022/06/27 03:22:18;;;;;;;104.97;12.93;;;15.00;99.90;;;;;;4211689;28;20024;-65
2022/06/27 03:24:20;;;;;;;66.35;11.23;;;14.90;99.90;;;;;;4210518;28;20109;-64
2022/06/27 03:26:21;;;;;;;110.30;14.02;;;14.90;99.90;;;;;;4211419;28;20093;-66
2022/06/27 03:28:23;;;;;;;98.35;13.23;;;14.90;99.90;;;;;;4210442;28;20093;-66
2022/06/27 03:30:24;;;;;;;89.88;12.27;;;14.90;99.90;;;;;;4209235;28;20035;-64
2022/06/27 03:32:25;;;;;;;121.32;13.68;;;14.90;99.90;;;;;;4193744;28;20048;-65
2022/06/27 03:34:26;;;;;;;108.85;14.02;;;14.90;99.90;;;;;;4194743;28;20036;-65
2022/06/27 03:36:27;;;;;;;91.10;13.43;;;14.90;99.90;;;;;;4193819;28;20020;-65
2022/06/27 03:38:29;;;;;;;112.70;12.07;;;14.90;99.90;;;;;;4194589;28;20067;-64
2022/06/27 03:40:30;;;;;;;131.40;12.25;;;14.90;99.90;;;;;;4194992;28;20025;-65
2022/06/27 03:42:31;;;;;;;106.15;11.98;;;14.90;99.90;;;;;;4201093;28;20024;-66
2022/06/27 03:44:32;;;;;;;112.05;12.45;;;14.90;99.90;;;;;;4205665;28;20565;-65
2022/06/27 03:46:33;;;;;;;59.50;11.23;;;14.90;99.90;;;;;;4197939;28;20465;-64
2022/06/27 03:50:54;;;;;;;101.05;12.93;;;14.90;99.90;;;;;;4194519;28;20078;-64
2022/06/27 03:52:56;;;;;;;76.97;11.93;;;14.90;99.90;;;;;;4194418;28;20040;-64
2022/06/27 03:54:57;;;;;;;94.53;13.75;;;14.80;99.90;;;;;;4193332;28;20045;-66
2022/06/27 03:56:58;;;;;;;25.20;13.05;;;14.80;99.90;;;;;;4206075;28;20458;-65
2022/06/27 03:58:59;;;;;;;77.47;13.05;;;14.90;99.90;;;;;;4199408;28;20049;-64
2022/06/27 04:01:01;;;;;;;54.85;11.57;;;15.00;99.90;;;;;;4190460;28;20094;-65
2022/06/27 04:03:02;;;;;;;59.80;13.60;;;15.00;99.90;;;;;;4195109;28;20057;-65
2022/06/27 04:05:04;;;;;;;86.25;13.43;;;15.00;99.90;;;;;;4197796;28;20071;-65
2022/06/27 04:07:05;;;;;;;64.53;13.10;;;15.00;99.90;;;;;;4196087;28;20048;-64
2022/06/27 04:09:07;;;;;;;49.15;13.07;;;15.00;99.90;;;;;;4207434;28;20117;-64
2022/06/27 04:11:08;;;;;;;53.75;13.65;;;15.00;99.90;;;;;;4211611;28;20100;-63
2022/06/27 04:13:09;;;;;;;73.43;13.10;;;15.00;99.90;;;;;;4214212;28;20077;-64
2022/06/27 04:15:11;;;;;;;71.20;13.55;;;15.10;99.90;;;;;;4213319;28;20053;-63
2022/06/27 04:17:12;;;;;;;34.13;14.30;;;15.10;99.90;;;;;;4204313;28;20052;-65
2022/06/27 04:19:13;;;;;;;45.22;12.73;;;15.00;99.90;;;;;;4196936;28;20086;-64
2022/06/27 04:21:15;;;;;;;152.93;15.23;;;15.10;99.90;;;;;;4188965;28;20535;-61
2022/06/27 04:23:16;;;;;;;63.83;13.82;;;15.10;99.90;;;;;;4180901;28;20539;-64
2022/06/27 04:25:17;;;;;;;93.45;13.82;;;15.10;99.90;;;;;;4179857;28;20025;-65
2022/06/27 04:27:20;;;;;;;47.17;12.65;;;15.10;99.90;;;;;;4181028;28;20033;-65
2022/06/27 04:29:21;;;;;;;60.28;13.25;;;15.10;99.90;;;;;;4196803;28;20089;-64
2022/06/27 04:31:23;;;;;;;50.78;13.68;;;15.10;99.90;;;;;;4214262;28;20137;-63
2022/06/27 04:33:24;;;;;;;50.85;12.23;;;15.10;99.90;;;;;;4212654;28;20036;-63
2022/06/27 04:35:25;;;;;;;28.80;10.73;;;15.00;99.90;;;;;;4214114;28;20065;-63
2022/06/27 04:37:26;;;;;;;54.33;12.77;;;15.00;99.90;;;;;;4201925;28;20028;-64
2022/06/27 04:39:28;;;;;;;51.00;12.05;;;15.00;99.90;;;;;;4197213;28;20097;-64
2022/06/27 04:41:29;;;;;;;64.95;13.10;;;15.00;99.90;;;;;;4196181;28;20028;-63
2022/06/27 04:43:33;;;;;;;71.60;12.93;;;14.90;99.90;;;;;;4202372;28;20028;-63
2022/06/27 04:45:34;;;;;;;40.47;12.65;;;15.00;99.90;;;;;;4207380;28;20097;-64
2022/06/27 04:47:38;;;;;;;23.88;13.25;;;15.00;99.90;;;;;;4179460;28;20029;-65
2022/06/27 04:49:42;;;;;;;29.15;13.93;;;15.10;99.90;;;;;;4179411;28;20095;-64
2022/06/27 04:51:43;;;;;;;47.95;14.48;;;15.20;99.90;;;;;;4179754;28;20037;-62
2022/06/27 04:53:45;;;;;;;24.77;13.25;;;15.20;99.90;;;;;;4180117;28;20484;-64
2022/06/27 04:55:47;;;;;;;20.77;13.20;;;15.20;99.90;;;;;;4199355;28;20093;-63
2022/06/27 04:57:48;;;;;;;24.23;14.65;;;15.30;99.90;;;;;;4213274;28;20052;-63
2022/06/27 04:59:49;;;;;;;22.15;13.93;;;15.40;99.90;;;;;;4212662;28;20117;-63
2022/06/27 05:01:51;;;;;;;20.50;13.77;;;15.50;99.90;;;;;;4196325;28;20079;-64
2022/06/27 05:03:52;;;;;;;21.95;13.40;;;15.50;99.90;;;;;;4195657;28;20049;-64
2022/06/27 05:05:53;;;;;;;21.30;13.77;;;15.60;99.90;;;;;;4196489;28;20048;-64
2022/06/27 05:07:57;;;;;;;20.38;14.10;;;15.70;99.90;;;;;;4193626;28;20336;-64
2022/06/27 05:09:58;;;;;;;24.35;15.85;;;15.80;99.90;;;;;;4206997;28;20044;-64
2022/06/27 05:11:59;;;;;;;22.80;14.27;;;15.90;99.90;;;;;;4200589;28;20106;-62
2022/06/27 05:14:00;;;;;;;18.48;12.88;;;15.90;99.90;;;;;;4196631;28;20033;-63
2022/06/27 05:16:03;;;;;;;16.25;12.63;;;16.00;99.90;;;;;;4195487;28;20040;-63
2022/06/27 05:18:04;;;;;;;16.77;12.32;;;16.10;99.90;;;;;;4196352;28;20041;-63
2022/06/27 05:20:07;;;;;;;19.08;12.85;;;16.40;99.90;;;;;;4195396;28;20037;-64
2022/06/27 05:22:08;;;;;;;14.18;11.15;;;16.80;99.90;;;;;;4196373;28;20049;-61
2022/06/27 05:24:10;;;;;;;13.07;10.73;;;17.00;99.90;;;;;;4195744;28;20094;-64
2022/06/27 05:26:12;;;;;;;11.43;9.50;;;17.20;99.90;;;;;;4195516;28;20032;-65
2022/06/27 05:28:13;;;;;;;10.85;7.88;;;17.20;99.90;;;;;;4195994;28;20534;-64
2022/06/27 05:30:15;;;;;;;10.77;8.63;;;17.20;99.90;;;;;;4195477;28;20036;-64
2022/06/27 05:32:16;;;;;;;11.25;8.18;;;17.00;99.90;;;;;;4196613;28;20040;-64
2022/06/27 05:34:17;;;;;;;8.95;8.05;;;17.10;99.90;;;;;;4195191;28;20028;-63
2022/06/27 05:36:20;;;;;;;11.30;8.85;;;17.30;99.90;;;;;;4196650;28;20033;-64
2022/06/27 05:38:22;;;;;;;11.25;8.52;;;17.60;99.90;;;;;;4195250;28;20028;-63
2022/06/27 05:40:24;;;;;;;9.88;8.25;;;18.40;99.90;;;;;;4196317;28;20108;-64
2022/06/27 05:42:26;;;;;;;10.07;6.95;;;19.30;99.90;;;;;;4194989;28;20412;-62
2022/06/27 05:44:27;;;;;;;6.05;5.45;;;20.50;99.90;;;;;;4195992;28;20032;-64
2022/06/27 05:46:29;;;;;;;6.38;5.63;;;21.10;99.90;;;;;;4194929;28;20032;-65
2022/06/27 05:48:31;;;;;;;6.57;5.90;;;21.40;99.90;;;;;;4195878;28;20025;-64
2022/06/27 05:50:32;;;;;;;5.82;5.32;;;21.10;99.90;;;;;;4195419;28;20036;-65
2022/06/27 05:52:34;;;;;;;7.43;5.53;;;21.20;99.90;;;;;;4195947;28;20044;-63
2022/06/27 05:54:35;;;;;;;6.15;5.35;;;21.10;99.90;;;;;;4195187;28;20048;-64
2022/06/27 05:56:39;;;;;;;6.10;5.20;;;21.00;99.90;;;;;;4195047;28;20021;-63
2022/06/27 05:58:42;;;;;;;6.38;5.70;;;21.50;99.90;;;;;;4195366;28;21593;-64
2022/06/27 06:00:43;;;;;;;7.13;4.72;;;22.10;99.90;;;;;;4195046;28;20037;-63
2022/06/27 06:02:44;;;;;;;5.88;5.28;;;23.10;99.90;;;;;;4195669;28;20036;-63
2022/06/27 06:04:45;;;;;;;5.53;5.03;;;23.30;99.90;;;;;;4194972;28;20117;-64
2022/06/27 06:06:47;;;;;;;6.55;5.18;;;23.30;99.90;;;;;;4195883;28;20082;-63
2022/06/27 06:08:48;;;;;;;4.85;4.45;;;23.10;99.90;;;;;;4194490;28;20020;-64
2022/06/27 06:10:49;;;;;;;5.40;4.75;;;23.20;99.90;;;;;;4195584;28;20086;-63
2022/06/27 06:12:51;;;;;;;7.03;4.97;;;23.50;99.90;;;;;;4194422;28;20142;-64
2022/06/27 06:14:52;;;;;;;5.97;5.20;;;23.30;99.90;;;;;;4195556;28;20639;-64
2022/06/27 06:16:53;;;;;;;5.22;4.72;;;23.20;99.90;;;;;;4194312;28;20049;-63
2022/06/27 06:18:55;;;;;;;5.50;5.00;;;23.10;99.90;;;;;;4195551;28;20074;-64
2022/06/27 06:20:56;;;;;;;5.68;5.18;;;22.70;99.90;;;;;;4194721;28;20439;-62
2022/06/27 06:22:57;;;;;;;6.88;5.53;;;22.50;99.90;;;;;;4194690;28;20045;-62
2022/06/27 06:24:59;;;;;;;9.77;6.18;;;22.20;99.90;;;;;;4193946;28;20048;-63
2022/06/27 06:27:00;;;;;;;6.45;5.85;;;22.30;99.90;;;;;;4194609;28;20077;-63
2022/06/27 06:29:12;;;;;;;6.97;6.28;;;22.30;99.90;;;;;;4194038;28;20086;-65
2022/06/27 06:31:21;;;;;;;6.53;5.55;;;22.20;99.90;;;;;;4194041;28;20114;-64
2022/06/27 06:33:23;;;;;;;6.72;6.03;;;22.10;99.90;;;;;;4194053;28;20024;-63
2022/06/27 06:35:24;;;;;;;7.05;6.35;;;21.90;99.90;;;;;;4194562;28;20020;-62
2022/06/27 06:37:26;;;;;;;7.72;5.20;;;22.00;99.90;;;;;;4194701;28;20118;-63
2022/06/27 06:39:28;;;;;;;5.82;5.30;;;22.20;99.90;;;;;;4194037;28;20024;-62
2022/06/27 06:41:29;;;;;;;6.22;5.20;;;22.50;99.90;;;;;;4195048;28;20678;-64
2022/06/27 06:43:30;;;;;;;6.03;5.38;;;22.90;99.90;;;;;;4193783;28;20040;-63
2022/06/27 06:45:32;;;;;;;6.60;5.97;;;23.00;99.90;;;;;;4195276;28;20443;-64
2022/06/27 06:47:33;;;;;;;6.53;5.75;;;23.30;99.90;;;;;;4194136;28;20028;-63
2022/06/27 06:49:35;;;;;;;6.00;5.13;;;23.40;99.90;;;;;;4195328;28;20016;-62
2022/06/27 06:51:39;;;;;;;9.95;4.88;;;23.30;99.90;;;;;;4194723;28;20040;-64
2022/06/27 06:53:40;;;;;;;5.57;5.00;;;23.10;99.90;;;;;;4195152;28;20024;-64
2022/06/27 06:55:42;;;;;;;5.63;5.10;;;23.20;99.90;;;;;;4194022;28;20063;-63
2022/06/27 06:57:44;;;;;;;6.65;5.40;;;23.20;99.90;;;;;;4195260;28;20089;-64
2022/06/27 06:59:45;;;;;;;6.90;5.32;;;23.10;99.90;;;;;;4193675;28;20032;-64
2022/06/27 07:01:47;;;;;;;6.68;4.90;;;23.10;99.90;;;;;;4194481;28;20407;-65
2022/06/27 07:03:49;;;;;;;8.65;4.93;;;23.20;99.90;;;;;;4193939;28;20431;-62
2022/06/27 07:05:51;;;;;;;5.75;4.90;;;23.50;99.90;;;;;;4194177;28;20020;-64
2022/06/27 07:07:53;;;;;;;7.50;5.75;;;23.70;99.90;;;;;;4194210;28;20013;-64
2022/06/27 07:09:54;;;;;;;6.53;4.65;;;24.10;99.90;;;;;;4194185;28;20041;-63
2022/06/27 07:11:57;;;;;;;6.45;4.60;;;24.10;99.90;;;;;;4194137;28;20109;-63
2022/06/27 07:13:59;;;;;;;6.25;4.80;;;24.20;99.90;;;;;;4193743;28;20033;-65
2022/06/27 07:16:00;;;;;;;7.40;5.18;;;24.60;99.90;;;;;;4195060;28;20082;-63
2022/06/27 07:18:02;;;;;;;6.07;4.97;;;24.50;99.90;;;;;;4193304;28;20448;-64
2022/06/27 07:20:04;;;;;;;7.65;5.35;;;24.50;99.90;;;;;;4194420;28;20082;-63
2022/06/27 07:22:06;;;;;;;8.15;4.95;;;24.50;99.90;;;;;;4193823;28;20033;-64
2022/06/27 07:24:09;;;;;;;7.28;4.90;;;24.40;99.90;;;;;;4194547;28;20033;-64
2022/06/27 07:26:10;;;;;;;5.95;5.10;;;24.20;99.90;;;;;;4193328;28;20048;-64
2022/06/27 07:28:12;;;;;;;5.53;4.68;;;24.30;99.90;;;;;;4194688;28;20024;-64
2022/06/27 07:30:14;;;;;;;4.70;4.30;;;24.30;99.90;;;;;;4193283;28;20040;-64
2022/06/27 07:32:16;;;;;;;5.18;4.68;;;24.30;99.90;;;;;;4194517;28;20067;-63
2022/06/27 07:34:19;;;;;;;4.60;3.97;;;24.30;99.90;;;;;;4193229;28;20017;-64
2022/06/27 07:36:22;;;;;;;4.85;4.32;;;24.50;99.90;;;;;;4194204;28;20013;-65
2022/06/27 07:38:23;;;;;;;5.43;4.13;;;24.50;99.90;;;;;;4193585;28;20037;-63
2022/06/27 07:40:24;;;;;;;4.53;4.13;;;24.50;99.90;;;;;;4193936;28;20082;-65
2022/06/27 07:42:27;;;;;;;3.95;3.45;;;24.70;99.90;;;;;;4193615;28;20109;-64
2022/06/27 07:44:29;;;;;;;4.47;4.07;;;24.90;99.90;;;;;;4193367;28;20040;-66
2022/06/27 07:46:31;;;;;;;8.75;3.92;;;24.90;99.90;;;;;;4194381;28;20093;-66
2022/06/27 07:48:33;;;;;;;5.93;3.63;;;25.20;99.90;;;;;;4193359;28;20091;-64
2022/06/27 07:50:37;;;;;;;3.30;3.00;;;25.50;99.90;;;;;;4194864;28;20161;-63
2022/06/27 07:54:59;;;;;;;3.03;2.80;;;25.70;99.90;;;;;;4194013;28;20816;-64
2022/06/27 07:57:00;;;;;;;3.83;3.50;;;25.80;99.90;;;;;;4192801;28;20546;-63
2022/06/27 07:59:01;;;;;;;3.70;2.45;;;26.00;99.90;;;;;;4194607;28;20052;-64
2022/06/27 08:01:06;;;;;;;4.68;2.58;;;26.50;99.90;;;;;;4193045;28;20025;-64
2022/06/27 08:05:28;;;;;;;1.67;1.45;;;27.00;99.90;;;;;;4193489;28;20445;-63
2022/06/27 08:07:29;;;;;;;2.80;1.35;;;27.40;99.90;;;;;;4194217;28;20036;-63
2022/06/27 08:09:31;;;;;;;2.47;1.45;;;27.60;99.90;;;;;;4193120;28;20037;-63
2022/06/27 08:11:39;;;;;;;2.50;1.10;;;27.50;99.90;;;;;;4193983;28;20078;-67
2022/06/27 08:13:41;;;;;;;2.75;1.30;;;27.40;99.90;;;;;;4192915;28;20020;-64
2022/06/27 08:15:42;;;;;;;5.38;1.08;;;27.30;99.10;;;;;;4194567;28;20086;-64
2022/06/27 08:17:45;;;;;;;2.38;1.10;;;27.30;99.10;;;;;;4192979;28;20086;-63
2022/06/27 08:19:46;;;;;;;1.98;1.10;;;27.30;98.80;;;;;;4194004;28;20037;-63
2022/06/27 08:21:47;;;;;;;1.17;1.08;;;27.40;98.70;;;;;;4193440;28;20029;-65
2022/06/27 08:23:49;;;;;;;2.45;1.27;;;27.40;97.80;;;;;;4193407;28;20504;-63
2022/06/27 08:25:50;;;;;;;0.98;0.98;;;27.30;97.70;;;;;;4193128;28;20078;-65
2022/06/27 08:27:51;;;;;;;2.70;1.63;;;27.30;97.40;;;;;;4193157;28;20096;-63
2022/06/27 08:29:52;;;;;;;1.73;1.08;;;27.30;97.20;;;;;;4193905;28;20098;-64
2022/06/27 08:31:53;;;;;;;3.30;1.10;;;27.60;97.20;;;;;;4192716;28;20414;-66
2022/06/27 08:34:01;;;;;;;1.58;1.13;;;27.90;96.80;;;;;;4193880;28;20037;-65
2022/06/27 08:36:04;;;;;;;4.63;1.45;;;27.70;96.00;;;;;;4192805;28;20040;-66
2022/06/27 08:38:05;;;;;;;2.75;1.25;;;27.60;95.80;;;;;;4194168;28;20033;-64
2022/06/27 08:40:10;;;;;;;1.10;1.00;;;27.50;95.60;;;;;;4192719;28;20465;-65
2022/06/27 08:42:12;;;;;;;2.45;1.98;;;27.60;95.50;;;;;;4195105;28;20029;-65
2022/06/27 08:44:14;;;;;;;1.85;1.10;;;27.80;95.30;;;;;;4196013;28;20405;-66
2022/06/27 08:46:16;;;;;;;3.58;1.30;;;28.00;95.10;;;;;;4196863;28;20335;-64
2022/06/27 08:48:18;;;;;;;4.43;1.30;;;27.80;94.20;;;;;;4196081;28;20048;-64
2022/06/27 08:50:20;;;;;;;2.22;1.20;;;27.30;93.90;;;;;;4196864;28;20468;-64
2022/06/27 08:52:22;;;;;;;1.27;1.17;;;27.10;94.20;;;;;;4196294;28;20090;-66
2022/06/27 08:54:23;;;;;;;2.15;1.25;;;26.90;94.50;;;;;;4197055;28;20090;-67
2022/06/27 08:56:26;;;;;;;2.10;1.15;;;27.10;94.90;;;;;;4195522;28;20522;-65
2022/06/27 08:58:31;;;;;;;2.35;1.35;;;27.50;95.00;;;;;;4196387;28;20025;-65
2022/06/27 09:00:37;;;;;;;1.35;1.23;;;27.80;94.40;;;;;;4196169;28;20036;-64
2022/06/27 09:02:42;;;;;;;1.63;1.17;;;28.00;93.90;;;;;;4195810;28;20086;-64
2022/06/27 09:04:58;;;;;;;1.15;1.00;;;28.00;93.80;;;;;;4195762;28;20531;-66
2022/06/27 09:06:59;;;;;;;1.00;0.90;;;28.10;92.80;;;;;;4196192;28;20056;-65
2022/06/27 09:09:08;;;;;;;4.32;0.85;;;28.10;93.30;;;;;;4194672;28;20966;-67
2022/06/27 09:11:09;;;;;;;2.13;0.90;;;28.10;92.70;;;;;;4196088;28;20085;-66
2022/06/27 09:13:15;;;;;;;1.13;1.00;;;27.50;92.40;;;;;;4196025;28;20041;-65
2022/06/27 09:15:16;;;;;;;3.70;1.08;;;27.30;92.50;;;;;;4194196;28;20685;-65
2022/06/27 09:17:18;;;;;;;3.40;1.17;;;27.10;92.70;;;;;;4196211;28;20054;-65
2022/06/27 09:19:46;;;;;;;1.42;1.08;;;26.90;93.10;;;;;;4195554;28;20036;-65
2022/06/27 09:22:14;;;;;;;1.20;1.10;;;26.90;92.80;;;;;;4196659;28;20542;-65
2022/06/27 09:24:15;;;;;;;1.20;0.90;;;26.80;91.70;;;;;;4195388;28;20086;-65
2022/06/27 09:26:29;;;;;;;1.88;0.88;;;26.70;92.20;;;;;;4195806;28;20443;-67
2022/06/27 09:28:53;;;;;;;3.15;1.17;;;26.70;91.70;;;;;;4195692;28;20029;-66
2022/06/27 09:30:55;;;;;;;1.13;1.02;;;26.50;92.00;;;;;;4195481;28;20044;-65
2022/06/27 09:32:59;;;;;;;1.63;1.08;;;26.40;92.50;;;;;;4195793;28;20127;-67
2022/06/27 09:35:20;;;;;;;1.25;1.15;;;26.20;92.60;;;;;;4195656;28;20070;-64
2022/06/27 09:37:22;;;;;;;1.40;1.30;;;26.20;92.50;;;;;;4195633;28;20046;-65
2022/06/27 09:39:29;;;;;;;1.52;1.00;;;26.20;92.80;;;;;;4195280;28;20032;-65
2022/06/27 09:41:31;;;;;;;1.75;1.33;;;26.30;93.20;;;;;;4195477;28;20032;-65
2022/06/27 09:43:34;;;;;;;1.33;1.23;;;26.50;93.00;;;;;;4195521;28;20037;-65
2022/06/27 09:45:37;;;;;;;2.10;1.20;;;26.60;92.60;;;;;;4195028;28;20424;-64
2022/06/27 09:47:39;;;;;;;2.40;1.27;;;26.60;92.50;;;;;;4195441;28;20071;-63
2022/06/27 09:49:43;;;;;;;3.42;1.27;;;26.70;92.40;;;;;;4194633;28;20090;-65
2022/06/27 09:51:44;;;;;;;7.97;1.63;;;26.70;92.50;;;;;;4195970;28;20036;-66
2022/06/27 09:53:48;;;;;;;2.38;1.17;;;26.70;92.50;;;;;;4194054;28;20020;-64
2022/06/27 09:55:49;;;;;;;3.33;1.30;;;26.80;92.60;;;;;;4195365;28;20067;-66
2022/06/27 09:57:52;;;;;;;2.05;1.10;;;26.90;92.50;;;;;;4194558;28;20028;-64
2022/06/27 09:59:53;;;;;;;1.40;1.17;;;26.90;92.30;;;;;;4195733;28;20473;-65
2022/06/27 10:01:57;;;;;;;2.50;1.23;;;26.80;92.20;;;;;;4194715;28;20094;-65
2022/06/27 10:04:00;;;;;;;1.63;1.00;;;26.80;92.30;;;;;;4195725;28;20048;-66
2022/06/27 10:06:01;;;;;;;1.17;1.00;;;26.80;92.10;;;;;;4194542;28;20452;-65
2022/06/27 10:08:05;;;;;;;1.10;1.00;;;26.80;91.80;;;;;;4195922;28;20028;-65
2022/06/27 10:10:07;;;;;;;1.50;1.40;;;26.80;91.50;;;;;;4194600;28;20029;-65
2022/06/27 10:12:28;;;;;;;4.13;1.45;;;26.80;91.70;;;;;;4194928;28;20044;-66
2022/06/27 10:14:29;;;;;;;2.70;0.98;;;26.80;91.50;;;;;;4194511;28;20036;-66
2022/06/27 10:16:32;;;;;;;4.47;1.35;;;26.60;92.00;;;;;;4195420;28;20126;-65
2022/06/27 10:19:02;;;;;;;1.38;1.27;;;26.70;92.20;;;;;;4194363;28;20040;-66
2022/06/27 10:21:23;;;;;;;;;;;26.70;91.50;;;;;;4196009;28;20101;-65
2022/06/27 10:23:28;;;;;;;4.10;1.38;;;26.80;91.80;;;;;;4194651;28;19990;-65
2022/06/27 10:25:29;;;;;;;3.50;1.10;;;26.80;92.10;;;;;;4195325;28;20046;-66
2022/06/27 10:27:31;;;;;;;6.10;1.20;;;26.90;92.00;;;;;;4194046;28;20094;-66
2022/06/27 10:29:42;;;;;;;2.92;1.13;;;27.00;91.70;;;;;;4195598;28;20041;-64
2022/06/27 10:31:46;;;;;;;2.13;1.13;;;26.90;91.50;;;;;;4194427;28;20102;-65
2022/06/27 10:33:49;;;;;;;2.15;1.23;;;26.90;91.30;;;;;;4195326;28;20423;-66
2022/06/27 10:36:02;;;;;;;2.08;1.25;;;26.80;91.50;;;;;;4194262;28;20025;-65